sensor_id;sensor_type;location;lat;lon;timestamp;P1;durP1;ratioP1;P2;durP2;ratioP2
20589;SDS011;10453;50.810;12.540;2023-02-28T00:04:11;17.25;;;10.93;;
20589;SDS011;10453;50.810;12.540;2023-02-28T00:08:28;21.60;;;11.30;;
20589;SDS011;10453;50.810;12.540;2023-02-28T00:12:49;14.70;;;10.60;;
20589;SDS011;10453;50.810;12.540;2023-02-28T00:17:07;18.85;;;10.65;;
20589;SDS011;10453;50.810;12.540;2023-02-28T00:21:24;17.05;;;10.85;;
20589;SDS011;10453;50.810;12.540;2023-02-28T00:25:42;18.17;;;10.50;;
20589;SDS011;10453;50.810;12.540;2023-02-28T00:29:59;18.80;;;11.73;;
20589;SDS011;10453;50.810;12.540;2023-02-28T00:34:16;18.83;;;11.07;;
20589;SDS011;10453;50.810;12.540;2023-02-28T00:38:33;20.42;;;11.65;;
20589;SDS011;10453;50.810;12.540;2023-02-28T00:42:50;16.53;;;11.87;;
20589;SDS011;10453;50.810;12.540;2023-02-28T00:47:07;18.73;;;11.70;;
20589;SDS011;10453;50.810;12.540;2023-02-28T00:51:24;19.90;;;11.63;;
20589;SDS011;10453;50.810;12.540;2023-02-28T00:55:42;19.40;;;11.27;;
20589;SDS011;10453;50.810;12.540;2023-02-28T00:59:59;21.03;;;11.37;;
20589;SDS011;10453;50.810;12.540;2023-02-28T01:04:16;17.73;;;11.43;;
20589;SDS011;10453;50.810;12.540;2023-02-28T01:08:33;21.42;;;11.55;;
20589;SDS011;10453;50.810;12.540;2023-02-28T01:12:51;16.20;;;10.90;;
20589;SDS011;10453;50.810;12.540;2023-02-28T01:17:08;18.17;;;11.90;;
20589;SDS011;10453;50.810;12.540;2023-02-28T01:21:25;17.97;;;11.00;;
20589;SDS011;10453;50.810;12.540;2023-02-28T01:25:43;17.05;;;11.18;;
20589;SDS011;10453;50.810;12.540;2023-02-28T01:30:00;17.87;;;12.27;;
20589;SDS011;10453;50.810;12.540;2023-02-28T01:34:17;20.33;;;12.33;;
20589;SDS011;10453;50.810;12.540;2023-02-28T01:38:36;22.70;;;12.98;;
20589;SDS011;10453;50.810;12.540;2023-02-28T01:42:53;26.63;;;14.47;;
20589;SDS011;10453;50.810;12.540;2023-02-28T01:47:10;29.90;;;15.37;;
20589;SDS011;10453;50.810;12.540;2023-02-28T01:51:30;30.05;;;15.50;;
20589;SDS011;10453;50.810;12.540;2023-02-28T01:56:03;43.78;;;20.38;;
20589;SDS011;10453;50.810;12.540;2023-02-28T02:00:24;41.45;;;17.15;;
20589;SDS011;10453;50.810;12.540;2023-02-28T02:04:50;45.03;;;19.42;;
20589;SDS011;10453;50.810;12.540;2023-02-28T02:09:11;39.97;;;18.35;;
20589;SDS011;10453;50.810;12.540;2023-02-28T02:18:03;42.55;;;20.17;;
20589;SDS011;10453;50.810;12.540;2023-02-28T02:27:26;33.15;;;15.50;;
20589;SDS011;10453;50.810;12.540;2023-02-28T02:36:27;19.02;;;10.63;;
20589;SDS011;10453;50.810;12.540;2023-02-28T02:40:58;26.50;;;12.88;;
20589;SDS011;10453;50.810;12.540;2023-02-28T02:49:55;17.52;;;10.80;;
20589;SDS011;10453;50.810;12.540;2023-02-28T02:54:19;19.88;;;11.13;;
20589;SDS011;10453;50.810;12.540;2023-02-28T02:58:41;19.27;;;10.70;;
20589;SDS011;10453;50.810;12.540;2023-02-28T03:02:59;20.52;;;10.65;;
20589;SDS011;10453;50.810;12.540;2023-02-28T03:07:18;18.60;;;10.63;;
20589;SDS011;10453;50.810;12.540;2023-02-28T03:11:36;18.42;;;10.25;;
20589;SDS011;10453;50.810;12.540;2023-02-28T03:25:32;20.92;;;10.65;;
20589;SDS011;10453;50.810;12.540;2023-02-28T03:30:17;17.17;;;10.23;;
20589;SDS011;10453;50.810;12.540;2023-02-28T03:35:01;15.95;;;10.18;;
20589;SDS011;10453;50.810;12.540;2023-02-28T03:39:43;16.27;;;10.55;;
20589;SDS011;10453;50.810;12.540;2023-02-28T03:44:07;16.95;;;10.35;;
20589;SDS011;10453;50.810;12.540;2023-02-28T03:48:35;17.48;;;9.73;;
20589;SDS011;10453;50.810;12.540;2023-02-28T03:53:19;17.40;;;9.65;;
20589;SDS011;10453;50.810;12.540;2023-02-28T04:02:18;20.13;;;9.88;;
20589;SDS011;10453;50.810;12.540;2023-02-28T04:06:35;16.80;;;9.90;;
20589;SDS011;10453;50.810;12.540;2023-02-28T04:10:55;18.17;;;10.15;;
20589;SDS011;10453;50.810;12.540;2023-02-28T04:15:17;16.33;;;9.27;;
20589;SDS011;10453;50.810;12.540;2023-02-28T04:19:39;19.70;;;11.18;;
20589;SDS011;10453;50.810;12.540;2023-02-28T04:23:56;21.00;;;10.67;;
20589;SDS011;10453;50.810;12.540;2023-02-28T04:28:17;15.85;;;9.57;;
20589;SDS011;10453;50.810;12.540;2023-02-28T04:32:34;19.25;;;10.10;;
20589;SDS011;10453;50.810;12.540;2023-02-28T04:36:51;19.43;;;11.03;;
20589;SDS011;10453;50.810;12.540;2023-02-28T04:41:27;20.17;;;11.32;;
20589;SDS011;10453;50.810;12.540;2023-02-28T04:45:48;18.10;;;10.82;;
20589;SDS011;10453;50.810;12.540;2023-02-28T04:50:05;19.77;;;10.83;;
20589;SDS011;10453;50.810;12.540;2023-02-28T04:54:22;18.70;;;10.82;;
20589;SDS011;10453;50.810;12.540;2023-02-28T04:58:40;19.90;;;11.13;;
20589;SDS011;10453;50.810;12.540;2023-02-28T05:02:57;20.85;;;11.82;;
20589;SDS011;10453;50.810;12.540;2023-02-28T05:07:14;20.57;;;12.60;;
20589;SDS011;10453;50.810;12.540;2023-02-28T05:11:32;20.52;;;12.70;;
20589;SDS011;10453;50.810;12.540;2023-02-28T05:15:53;22.50;;;13.68;;
20589;SDS011;10453;50.810;12.540;2023-02-28T05:20:11;21.90;;;14.43;;
20589;SDS011;10453;50.810;12.540;2023-02-28T05:24:31;29.02;;;15.55;;
20589;SDS011;10453;50.810;12.540;2023-02-28T05:28:49;26.83;;;14.95;;
20589;SDS011;10453;50.810;12.540;2023-02-28T05:33:06;24.77;;;15.38;;
20589;SDS011;10453;50.810;12.540;2023-02-28T05:37:23;24.60;;;15.32;;
20589;SDS011;10453;50.810;12.540;2023-02-28T05:41:40;28.40;;;17.13;;
20589;SDS011;10453;50.810;12.540;2023-02-28T05:45:58;25.70;;;16.90;;
20589;SDS011;10453;50.810;12.540;2023-02-28T05:50:15;29.70;;;18.23;;
20589;SDS011;10453;50.810;12.540;2023-02-28T05:54:33;30.85;;;17.48;;
20589;SDS011;10453;50.810;12.540;2023-02-28T05:58:50;28.13;;;17.48;;
20589;SDS011;10453;50.810;12.540;2023-02-28T06:03:07;28.70;;;18.60;;
20589;SDS011;10453;50.810;12.540;2023-02-28T06:07:24;28.50;;;17.90;;
20589;SDS011;10453;50.810;12.540;2023-02-28T06:11:41;31.90;;;18.77;;
20589;SDS011;10453;50.810;12.540;2023-02-28T06:16:02;31.63;;;19.17;;
20589;SDS011;10453;50.810;12.540;2023-02-28T06:20:19;30.45;;;19.52;;
20589;SDS011;10453;50.810;12.540;2023-02-28T06:24:36;30.52;;;18.85;;
20589;SDS011;10453;50.810;12.540;2023-02-28T06:28:53;36.37;;;20.60;;
20589;SDS011;10453;50.810;12.540;2023-02-28T06:37:29;32.95;;;18.13;;
20589;SDS011;10453;50.810;12.540;2023-02-28T06:41:47;30.58;;;18.92;;
20589;SDS011;10453;50.810;12.540;2023-02-28T06:46:12;28.95;;;19.30;;
20589;SDS011;10453;50.810;12.540;2023-02-28T06:50:30;29.83;;;18.23;;
20589;SDS011;10453;50.810;12.540;2023-02-28T06:54:49;29.67;;;18.15;;
20589;SDS011;10453;50.810;12.540;2023-02-28T06:59:16;32.08;;;17.42;;
20589;SDS011;10453;50.810;12.540;2023-02-28T07:03:34;30.37;;;18.07;;
20589;SDS011;10453;50.810;12.540;2023-02-28T07:07:52;27.73;;;18.40;;
20589;SDS011;10453;50.810;12.540;2023-02-28T07:12:09;26.67;;;15.77;;
20589;SDS011;10453;50.810;12.540;2023-02-28T07:16:26;27.00;;;15.50;;
20589;SDS011;10453;50.810;12.540;2023-02-28T07:20:44;26.07;;;16.30;;
20589;SDS011;10453;50.810;12.540;2023-02-28T07:25:01;26.97;;;15.27;;
20589;SDS011;10453;50.810;12.540;2023-02-28T07:29:18;26.75;;;16.23;;
20589;SDS011;10453;50.810;12.540;2023-02-28T07:33:35;24.98;;;15.73;;
20589;SDS011;10453;50.810;12.540;2023-02-28T07:37:52;28.38;;;15.65;;
20589;SDS011;10453;50.810;12.540;2023-02-28T07:42:09;24.17;;;15.25;;
20589;SDS011;10453;50.810;12.540;2023-02-28T07:46:28;26.50;;;15.10;;
20589;SDS011;10453;50.810;12.540;2023-02-28T07:50:55;22.98;;;15.00;;
20589;SDS011;10453;50.810;12.540;2023-02-28T07:55:13;25.02;;;15.10;;
20589;SDS011;10453;50.810;12.540;2023-02-28T07:59:30;24.45;;;14.95;;
20589;SDS011;10453;50.810;12.540;2023-02-28T08:03:48;21.38;;;14.60;;
20589;SDS011;10453;50.810;12.540;2023-02-28T08:08:05;23.27;;;14.57;;
20589;SDS011;10453;50.810;12.540;2023-02-28T08:12:23;22.85;;;14.60;;
20589;SDS011;10453;50.810;12.540;2023-02-28T08:16:40;20.98;;;13.40;;
20589;SDS011;10453;50.810;12.540;2023-02-28T08:20:59;22.27;;;13.50;;
20589;SDS011;10453;50.810;12.540;2023-02-28T08:25:21;18.88;;;12.80;;
20589;SDS011;10453;50.810;12.540;2023-02-28T08:29:38;19.50;;;13.10;;
20589;SDS011;10453;50.810;12.540;2023-02-28T08:33:56;20.93;;;13.17;;
20589;SDS011;10453;50.810;12.540;2023-02-28T08:38:15;17.58;;;11.13;;
20589;SDS011;10453;50.810;12.540;2023-02-28T08:42:32;16.48;;;10.27;;
20589;SDS011;10453;50.810;12.540;2023-02-28T08:46:49;17.55;;;10.13;;
20589;SDS011;10453;50.810;12.540;2023-02-28T08:51:07;15.65;;;9.68;;
20589;SDS011;10453;50.810;12.540;2023-02-28T08:55:26;17.92;;;9.73;;
20589;SDS011;10453;50.810;12.540;2023-02-28T08:59:43;17.90;;;10.32;;
20589;SDS011;10453;50.810;12.540;2023-02-28T09:04:01;17.73;;;9.55;;
20589;SDS011;10453;50.810;12.540;2023-02-28T09:08:19;16.45;;;9.10;;
20589;SDS011;10453;50.810;12.540;2023-02-28T09:12:36;16.27;;;8.77;;
20589;SDS011;10453;50.810;12.540;2023-02-28T09:16:53;15.43;;;9.00;;
20589;SDS011;10453;50.810;12.540;2023-02-28T09:21:13;16.40;;;8.20;;
20589;SDS011;10453;50.810;12.540;2023-02-28T09:25:32;14.40;;;8.60;;
20589;SDS011;10453;50.810;12.540;2023-02-28T09:29:49;14.23;;;9.18;;
20589;SDS011;10453;50.810;12.540;2023-02-28T09:34:06;12.73;;;8.65;;
20589;SDS011;10453;50.810;12.540;2023-02-28T09:38:23;16.00;;;12.38;;
20589;SDS011;10453;50.810;12.540;2023-02-28T09:42:40;14.15;;;9.70;;
20589;SDS011;10453;50.810;12.540;2023-02-28T09:46:59;13.43;;;8.43;;
20589;SDS011;10453;50.810;12.540;2023-02-28T09:56:04;15.00;;;8.65;;
20589;SDS011;10453;50.810;12.540;2023-02-28T10:00:33;15.20;;;8.68;;
20589;SDS011;10453;50.810;12.540;2023-02-28T10:04:58;12.10;;;8.38;;
20589;SDS011;10453;50.810;12.540;2023-02-28T10:09:22;12.43;;;7.35;;
20589;SDS011;10453;50.810;12.540;2023-02-28T10:13:50;12.87;;;7.50;;
20589;SDS011;10453;50.810;12.540;2023-02-28T10:18:26;12.65;;;7.55;;
20589;SDS011;10453;50.810;12.540;2023-02-28T10:22:52;10.68;;;7.32;;
20589;SDS011;10453;50.810;12.540;2023-02-28T10:27:16;12.27;;;7.35;;
20589;SDS011;10453;50.810;12.540;2023-02-28T10:31:35;11.25;;;7.70;;
20589;SDS011;10453;50.810;12.540;2023-02-28T10:35:53;14.45;;;8.07;;
20589;SDS011;10453;50.810;12.540;2023-02-28T10:40:24;12.52;;;8.43;;
20589;SDS011;10453;50.810;12.540;2023-02-28T10:44:45;13.73;;;7.85;;
20589;SDS011;10453;50.810;12.540;2023-02-28T10:49:03;10.55;;;7.82;;
20589;SDS011;10453;50.810;12.540;2023-02-28T10:57:42;9.98;;;7.90;;
20589;SDS011;10453;50.810;12.540;2023-02-28T11:01:59;11.50;;;8.07;;
20589;SDS011;10453;50.810;12.540;2023-02-28T11:06:17;10.52;;;7.30;;
20589;SDS011;10453;50.810;12.540;2023-02-28T11:10:37;10.20;;;7.50;;
20589;SDS011;10453;50.810;12.540;2023-02-28T11:14:59;11.73;;;8.23;;
20589;SDS011;10453;50.810;12.540;2023-02-28T11:19:25;11.77;;;8.10;;
20589;SDS011;10453;50.810;12.540;2023-02-28T11:23:45;12.80;;;9.02;;
20589;SDS011;10453;50.810;12.540;2023-02-28T11:28:03;11.43;;;8.40;;
20589;SDS011;10453;50.810;12.540;2023-02-28T11:32:41;14.25;;;9.00;;
20589;SDS011;10453;50.810;12.540;2023-02-28T11:37:09;18.70;;;11.13;;
20589;SDS011;10453;50.810;12.540;2023-02-28T11:41:40;13.32;;;9.00;;
20589;SDS011;10453;50.810;12.540;2023-02-28T11:46:23;11.35;;;8.40;;
20589;SDS011;10453;50.810;12.540;2023-02-28T12:09:19;13.73;;;8.57;;
20589;SDS011;10453;50.810;12.540;2023-02-28T12:23:15;16.08;;;9.88;;
20589;SDS011;10453;50.810;12.540;2023-02-28T12:27:43;13.45;;;9.48;;
20589;SDS011;10453;50.810;12.540;2023-02-28T12:32:06;14.50;;;9.43;;
20589;SDS011;10453;50.810;12.540;2023-02-28T12:36:49;13.07;;;9.23;;
20589;SDS011;10453;50.810;12.540;2023-02-28T12:45:46;14.77;;;9.95;;
20589;SDS011;10453;50.810;12.540;2023-02-28T12:50:08;12.77;;;9.88;;
20589;SDS011;10453;50.810;12.540;2023-02-28T12:58:49;13.95;;;9.95;;
20589;SDS011;10453;50.810;12.540;2023-02-28T13:03:15;15.88;;;10.05;;
20589;SDS011;10453;50.810;12.540;2023-02-28T13:07:51;13.77;;;9.65;;
20589;SDS011;10453;50.810;12.540;2023-02-28T13:12:24;15.48;;;9.82;;
20589;SDS011;10453;50.810;12.540;2023-02-28T13:16:56;17.50;;;10.80;;
20589;SDS011;10453;50.810;12.540;2023-02-28T13:21:27;15.48;;;10.00;;
20589;SDS011;10453;50.810;12.540;2023-02-28T13:48:26;15.07;;;9.45;;
20589;SDS011;10453;50.810;12.540;2023-02-28T13:52:48;17.17;;;10.13;;
20589;SDS011;10453;50.810;12.540;2023-02-28T14:02:33;18.30;;;10.32;;
20589;SDS011;10453;50.810;12.540;2023-02-28T14:07:06;18.73;;;11.40;;
20589;SDS011;10453;50.810;12.540;2023-02-28T14:11:26;17.52;;;10.57;;
20589;SDS011;10453;50.810;12.540;2023-02-28T14:15:46;14.82;;;10.80;;
20589;SDS011;10453;50.810;12.540;2023-02-28T14:20:12;17.05;;;11.70;;
20589;SDS011;10453;50.810;12.540;2023-02-28T14:24:42;19.92;;;12.30;;
20589;SDS011;10453;50.810;12.540;2023-02-28T14:29:18;19.77;;;13.00;;
20589;SDS011;10453;50.810;12.540;2023-02-28T14:34:03;17.97;;;11.67;;
20589;SDS011;10453;50.810;12.540;2023-02-28T14:38:43;18.95;;;12.65;;
20589;SDS011;10453;50.810;12.540;2023-02-28T14:43:20;17.65;;;11.80;;
20589;SDS011;10453;50.810;12.540;2023-02-28T14:47:39;19.05;;;12.48;;
20589;SDS011;10453;50.810;12.540;2023-02-28T14:52:15;18.08;;;12.57;;
20589;SDS011;10453;50.810;12.540;2023-02-28T14:56:35;25.88;;;14.75;;
20589;SDS011;10453;50.810;12.540;2023-02-28T15:00:56;20.17;;;14.00;;
20589;SDS011;10453;50.810;12.540;2023-02-28T15:09:33;21.17;;;14.23;;
20589;SDS011;10453;50.810;12.540;2023-02-28T15:13:53;24.67;;;15.68;;
20589;SDS011;10453;50.810;12.540;2023-02-28T15:18:15;26.23;;;15.70;;
20589;SDS011;10453;50.810;12.540;2023-02-28T15:22:38;19.08;;;12.95;;
20589;SDS011;10453;50.810;12.540;2023-02-28T15:26:57;21.63;;;13.93;;
20589;SDS011;10453;50.810;12.540;2023-02-28T15:31:29;23.52;;;13.75;;
20589;SDS011;10453;50.810;12.540;2023-02-28T15:36:12;22.77;;;13.75;;
20589;SDS011;10453;50.810;12.540;2023-02-28T15:40:35;19.40;;;13.40;;
20589;SDS011;10453;50.810;12.540;2023-02-28T15:44:53;22.92;;;14.05;;
20589;SDS011;10453;50.810;12.540;2023-02-28T15:49:17;28.15;;;14.15;;
20589;SDS011;10453;50.810;12.540;2023-02-28T15:53:38;22.95;;;14.88;;
20589;SDS011;10453;50.810;12.540;2023-02-28T15:58:01;22.58;;;14.68;;
20589;SDS011;10453;50.810;12.540;2023-02-28T16:02:20;19.40;;;13.90;;
20589;SDS011;10453;50.810;12.540;2023-02-28T16:11:14;25.90;;;15.25;;
20589;SDS011;10453;50.810;12.540;2023-02-28T16:15:34;24.27;;;15.77;;
20589;SDS011;10453;50.810;12.540;2023-02-28T16:19:58;22.08;;;14.48;;
20589;SDS011;10453;50.810;12.540;2023-02-28T16:24:16;26.00;;;15.63;;
20589;SDS011;10453;50.810;12.540;2023-02-28T16:28:34;21.23;;;13.57;;
20589;SDS011;10453;50.810;12.540;2023-02-28T16:32:54;23.17;;;14.38;;
20589;SDS011;10453;50.810;12.540;2023-02-28T16:37:16;24.90;;;15.35;;
20589;SDS011;10453;50.810;12.540;2023-02-28T16:41:34;27.33;;;15.90;;
20589;SDS011;10453;50.810;12.540;2023-02-28T16:45:57;23.92;;;16.10;;
20589;SDS011;10453;50.810;12.540;2023-02-28T16:50:21;24.58;;;15.32;;
20589;SDS011;10453;50.810;12.540;2023-02-28T16:54:43;26.27;;;16.00;;
20589;SDS011;10453;50.810;12.540;2023-02-28T16:59:00;26.40;;;16.20;;
20589;SDS011;10453;50.810;12.540;2023-02-28T17:03:20;29.17;;;17.75;;
20589;SDS011;10453;50.810;12.540;2023-02-28T17:07:49;29.60;;;17.92;;
20589;SDS011;10453;50.810;12.540;2023-02-28T17:12:06;33.13;;;20.40;;
20589;SDS011;10453;50.810;12.540;2023-02-28T17:20:45;29.55;;;18.55;;
20589;SDS011;10453;50.810;12.540;2023-02-28T17:25:02;31.05;;;19.00;;
20589;SDS011;10453;50.810;12.540;2023-02-28T17:29:20;29.52;;;19.17;;
20589;SDS011;10453;50.810;12.540;2023-02-28T17:33:38;30.38;;;17.70;;
20589;SDS011;10453;50.810;12.540;2023-02-28T17:37:55;36.42;;;19.88;;
20589;SDS011;10453;50.810;12.540;2023-02-28T17:42:12;37.30;;;20.48;;
20589;SDS011;10453;50.810;12.540;2023-02-28T17:46:29;36.45;;;21.02;;
20589;SDS011;10453;50.810;12.540;2023-02-28T17:50:47;36.03;;;19.65;;
20589;SDS011;10453;50.810;12.540;2023-02-28T17:55:04;32.65;;;19.70;;
20589;SDS011;10453;50.810;12.540;2023-02-28T17:59:22;39.58;;;23.13;;
20589;SDS011;10453;50.810;12.540;2023-02-28T18:03:39;37.67;;;21.50;;
20589;SDS011;10453;50.810;12.540;2023-02-28T18:07:56;39.17;;;22.87;;
20589;SDS011;10453;50.810;12.540;2023-02-28T18:12:13;39.30;;;21.17;;
20589;SDS011;10453;50.810;12.540;2023-02-28T18:16:31;34.72;;;20.70;;
20589;SDS011;10453;50.810;12.540;2023-02-28T18:20:48;40.25;;;23.33;;
20589;SDS011;10453;50.810;12.540;2023-02-28T18:25:07;40.30;;;22.73;;
20589;SDS011;10453;50.810;12.540;2023-02-28T18:29:30;38.17;;;22.23;;
20589;SDS011;10453;50.810;12.540;2023-02-28T18:38:16;41.58;;;20.52;;
20589;SDS011;10453;50.810;12.540;2023-02-28T18:42:38;42.08;;;23.52;;
20589;SDS011;10453;50.810;12.540;2023-02-28T18:46:55;34.70;;;21.30;;
20589;SDS011;10453;50.810;12.540;2023-02-28T18:51:16;38.43;;;21.73;;
20589;SDS011;10453;50.810;12.540;2023-02-28T18:55:36;38.70;;;22.27;;
20589;SDS011;10453;50.810;12.540;2023-02-28T18:59:53;38.20;;;23.63;;
20589;SDS011;10453;50.810;12.540;2023-02-28T19:04:11;47.97;;;26.50;;
20589;SDS011;10453;50.810;12.540;2023-02-28T19:08:29;47.28;;;27.25;;
20589;SDS011;10453;50.810;12.540;2023-02-28T19:12:48;47.72;;;25.67;;
20589;SDS011;10453;50.810;12.540;2023-02-28T19:17:07;49.90;;;28.30;;
20589;SDS011;10453;50.810;12.540;2023-02-28T19:21:28;51.70;;;29.15;;
20589;SDS011;10453;50.810;12.540;2023-02-28T19:25:47;49.85;;;28.50;;
20589;SDS011;10453;50.810;12.540;2023-02-28T19:30:07;52.70;;;27.52;;
20589;SDS011;10453;50.810;12.540;2023-02-28T19:34:26;46.47;;;25.15;;
20589;SDS011;10453;50.810;12.540;2023-02-28T19:38:46;46.30;;;25.33;;
20589;SDS011;10453;50.810;12.540;2023-02-28T19:43:05;45.47;;;24.55;;
20589;SDS011;10453;50.810;12.540;2023-02-28T19:47:25;39.97;;;23.75;;
20589;SDS011;10453;50.810;12.540;2023-02-28T19:56:00;44.30;;;24.15;;
20589;SDS011;10453;50.810;12.540;2023-02-28T20:00:20;48.20;;;24.42;;
20589;SDS011;10453;50.810;12.540;2023-02-28T20:04:37;46.22;;;24.95;;
20589;SDS011;10453;50.810;12.540;2023-02-28T20:08:54;44.23;;;25.07;;
20589;SDS011;10453;50.810;12.540;2023-02-28T20:13:12;48.30;;;24.87;;
20589;SDS011;10453;50.810;12.540;2023-02-28T20:17:32;44.90;;;23.83;;
20589;SDS011;10453;50.810;12.540;2023-02-28T20:21:49;46.47;;;25.48;;
20589;SDS011;10453;50.810;12.540;2023-02-28T20:26:07;43.67;;;24.23;;
20589;SDS011;10453;50.810;12.540;2023-02-28T20:30:25;48.47;;;25.65;;
20589;SDS011;10453;50.810;12.540;2023-02-28T20:34:43;45.95;;;25.02;;
20589;SDS011;10453;50.810;12.540;2023-02-28T20:39:00;51.47;;;26.13;;
20589;SDS011;10453;50.810;12.540;2023-02-28T20:43:17;50.70;;;25.17;;
20589;SDS011;10453;50.810;12.540;2023-02-28T20:47:34;100.77;;;45.47;;
20589;SDS011;10453;50.810;12.540;2023-02-28T20:51:52;61.30;;;32.57;;
20589;SDS011;10453;50.810;12.540;2023-02-28T20:56:09;58.03;;;30.57;;
20589;SDS011;10453;50.810;12.540;2023-02-28T21:00:31;52.17;;;27.70;;
20589;SDS011;10453;50.810;12.540;2023-02-28T21:04:49;53.53;;;29.93;;
20589;SDS011;10453;50.810;12.540;2023-02-28T21:09:06;55.27;;;29.63;;
20589;SDS011;10453;50.810;12.540;2023-02-28T21:13:24;53.88;;;28.55;;
20589;SDS011;10453;50.810;12.540;2023-02-28T21:17:42;53.15;;;28.65;;
20589;SDS011;10453;50.810;12.540;2023-02-28T21:21:59;49.27;;;28.13;;
20589;SDS011;10453;50.810;12.540;2023-02-28T21:26:21;52.43;;;27.60;;
20589;SDS011;10453;50.810;12.540;2023-02-28T21:30:39;51.90;;;28.27;;
20589;SDS011;10453;50.810;12.540;2023-02-28T21:34:56;54.43;;;29.07;;
20589;SDS011;10453;50.810;12.540;2023-02-28T21:39:15;52.13;;;28.33;;
20589;SDS011;10453;50.810;12.540;2023-02-28T21:43:34;52.35;;;27.15;;
20589;SDS011;10453;50.810;12.540;2023-02-28T21:52:09;49.55;;;24.77;;
20589;SDS011;10453;50.810;12.540;2023-02-28T21:56:28;52.87;;;26.73;;
20589;SDS011;10453;50.810;12.540;2023-02-28T22:00:47;53.20;;;27.27;;
20589;SDS011;10453;50.810;12.540;2023-02-28T22:05:04;51.95;;;25.85;;
20589;SDS011;10453;50.810;12.540;2023-02-28T22:09:22;54.13;;;26.95;;
20589;SDS011;10453;50.810;12.540;2023-02-28T22:13:39;53.10;;;28.43;;
20589;SDS011;10453;50.810;12.540;2023-02-28T22:17:57;55.15;;;28.23;;
20589;SDS011;10453;50.810;12.540;2023-02-28T22:22:14;54.92;;;25.70;;
20589;SDS011;10453;50.810;12.540;2023-02-28T22:26:31;54.73;;;27.03;;
20589;SDS011;10453;50.810;12.540;2023-02-28T22:30:49;53.95;;;28.67;;
20589;SDS011;10453;50.810;12.540;2023-02-28T22:35:06;56.08;;;27.45;;
20589;SDS011;10453;50.810;12.540;2023-02-28T22:39:24;54.83;;;26.67;;
20589;SDS011;10453;50.810;12.540;2023-02-28T22:43:41;53.67;;;25.73;;
20589;SDS011;10453;50.810;12.540;2023-02-28T22:47:59;56.45;;;26.60;;
20589;SDS011;10453;50.810;12.540;2023-02-28T22:52:17;54.42;;;26.35;;
20589;SDS011;10453;50.810;12.540;2023-02-28T22:56:34;53.47;;;26.73;;
20589;SDS011;10453;50.810;12.540;2023-02-28T23:00:51;51.47;;;26.48;;
20589;SDS011;10453;50.810;12.540;2023-02-28T23:05:10;48.95;;;25.45;;
20589;SDS011;10453;50.810;12.540;2023-02-28T23:09:28;52.63;;;27.10;;
20589;SDS011;10453;50.810;12.540;2023-02-28T23:13:46;52.70;;;25.87;;
20589;SDS011;10453;50.810;12.540;2023-02-28T23:18:14;53.03;;;26.98;;
20589;SDS011;10453;50.810;12.540;2023-02-28T23:22:31;48.33;;;26.13;;
20589;SDS011;10453;50.810;12.540;2023-02-28T23:26:49;52.57;;;27.33;;
20589;SDS011;10453;50.810;12.540;2023-02-28T23:31:09;50.58;;;25.80;;
20589;SDS011;10453;50.810;12.540;2023-02-28T23:35:26;51.37;;;25.07;;
20589;SDS011;10453;50.810;12.540;2023-02-28T23:39:43;51.50;;;26.38;;
20589;SDS011;10453;50.810;12.540;2023-02-28T23:44:00;53.50;;;26.43;;
20589;SDS011;10453;50.810;12.540;2023-02-28T23:48:17;54.47;;;26.40;;
20589;SDS011;10453;50.810;12.540;2023-02-28T23:52:35;50.97;;;26.25;;
20589;SDS011;10453;50.810;12.540;2023-02-28T23:56:52;50.13;;;25.80;;
